Time;durP1;ratioP1;P1;durP2;ratioP2;P2;SDS_P1;SDS_P2;PMS_P1;PMS_P2;Temp;Humidity;BMP_temperature;BMP_pressure;BME280_temperature;BME280_humidity;BME280_pressure;Samples;Min_cycle;Max_cycle;Signal;HPM_P1;HPM_P2
2022/09/24 00:00:40;;;;;;;;;;;;;;;10.15;59.01;99764.16;4438222;32;35121;-81
2022/09/24 00:03:09;;;;;;;;;;;;;;;10.03;59.38;99756.50;4432398;32;33160;-79
2022/09/24 00:05:40;;;;;;;;;;;;;;;9.83;60.21;99757.53;4427325;32;33773;-80
2022/09/24 00:08:12;;;;;;;;;;;;;;;9.91;60.17;99760.06;4427514;32;33669;-80
2022/09/24 00:10:41;;;;;;;;;;;;;;;10.14;58.70;99757.22;4425141;32;34010;-81
2022/09/24 00:13:13;;;;;;;;;;;;;;;10.21;58.33;99758.03;4433282;32;31892;-81
2022/09/24 00:15:43;;;;;;;;;;;;;;;10.03;58.93;99749.56;4434397;32;33691;-81
2022/09/24 00:18:11;;;;;;;;;;;;;;;10.07;58.95;99752.13;4429881;32;35185;-83
2022/09/24 00:20:43;;;;;;;;;;;;;;;10.03;58.85;99751.31;4430580;32;33913;-81
2022/09/24 00:23:14;;;;;;;;;;;;;;;10.12;58.64;99752.94;4432612;32;33983;-80
2022/09/24 00:28:34;;;;;;;;;;;;;;;10.01;58.86;99753.06;4419942;32;35536;-81
2022/09/24 00:31:05;;;;;;;;;;;;;;;9.93;59.27;99757.44;4430299;32;34740;-79
2022/09/24 00:33:34;;;;;;;;;;;;;;;9.96;59.05;99758.28;4428822;32;33221;-81
2022/09/24 00:36:04;;;;;;;;;;;;;;;9.89;59.42;99766.97;4426094;32;33768;-81
2022/09/24 00:38:32;;;;;;;;;;;;;;;9.87;59.33;99760.09;4432207;32;34427;-81
2022/09/24 00:41:05;;;;;;;;;;;;;;;9.94;58.80;99756.56;4422175;32;34523;-81
2022/09/24 00:43:36;;;;;;;;;;;;;;;9.66;59.90;99759.41;4434939;32;33960;-82
2022/09/24 00:46:08;;;;;;;;;;;;;;;9.71;59.73;99756.78;4430716;32;34217;-82
2022/09/24 00:48:40;;;;;;;;;;;;;;;9.73;60.00;99753.28;4422468;32;34814;-81
2022/09/24 00:51:19;;;;;;;;;;;;;;;9.80;59.59;99748.94;4436556;32;34336;-80
2022/09/24 00:53:50;;;;;;;;;;;;;;;9.78;59.46;99743.75;4433527;32;34302;-81
2022/09/24 00:56:21;;;;;;;;;;;;;;;9.81;59.22;99738.56;4430561;32;32534;-80
2022/09/24 00:58:55;;;;;;;;;;;;;;;9.84;59.05;99742.84;4431724;32;34862;-81
2022/09/24 01:01:23;;;;;;;;;;;;;;;9.87;59.06;99739.38;4429534;32;34471;-81
2022/09/24 01:03:53;;;;;;;;;;;;;;;9.79;59.26;99732.53;4435601;32;33354;-81
2022/09/24 01:06:21;;;;;;;;;;;;;;;9.66;59.47;99730.91;4431861;32;33892;-81
2022/09/24 01:08:53;;;;;;;;;;;;;;;9.75;59.31;99737.75;4431541;32;35160;-81
2022/09/24 01:11:26;;;;;;;;;;;;;;;9.67;59.70;99731.78;4432047;32;34544;-83
2022/09/24 01:14:10;;;;;;;;;;;;;;;9.67;59.58;99724.88;4435788;32;34281;-82
2022/09/24 01:16:48;;;;;;;;;;;;;;;9.67;59.61;99724.88;4435463;32;37691;-81
2022/09/24 01:19:28;;;;;;;;;;;;;;;9.73;59.54;99729.13;4431167;32;33161;-83
2022/09/24 01:22:02;;;;;;;;;;;;;;;9.74;59.22;99729.13;4425662;32;34490;-81
2022/09/24 01:24:36;;;;;;;;;;;;;;;9.65;59.58;99720.56;4432170;32;33257;-83
2022/09/24 01:27:08;;;;;;;;;;;;;;;9.58;59.69;99717.19;4436105;32;34988;-82
2022/09/24 01:29:42;;;;;;;;;;;;;;;9.61;59.66;99722.31;4435198;32;34282;-82
2022/09/24 01:32:18;;;;;;;;;;;;;;;9.60;59.73;99718.03;4418797;32;33295;-81
2022/09/24 01:34:48;;;;;;;;;;;;;;;9.66;59.58;99717.94;4434384;32;33794;-82
2022/09/24 01:37:17;;;;;;;;;;;;;;;9.56;59.72;99711.16;4431923;32;33925;-81
2022/09/24 01:39:49;;;;;;;;;;;;;;;9.60;59.62;99715.44;4436987;32;34169;-81
2022/09/24 01:42:19;;;;;;;;;;;;;;;9.66;59.30;99712.78;4431685;32;34214;-81
2022/09/24 01:44:53;;;;;;;;;;;;;;;9.71;59.25;99713.63;4435133;32;33994;-81
2022/09/24 01:47:26;;;;;;;;;;;;;;;9.70;59.29;99705.84;4417083;32;34141;-82
2022/09/24 01:50:01;;;;;;;;;;;;;;;9.79;58.88;99706.63;4417275;32;33697;-81
2022/09/24 01:52:32;;;;;;;;;;;;;;;9.81;58.65;99702.28;4429118;32;33859;-83
2022/09/24 01:55:00;;;;;;;;;;;;;;;9.73;58.92;99701.47;4434737;32;33085;-82
2022/09/24 01:57:37;;;;;;;;;;;;;;;9.76;58.74;99698.88;4432177;32;34210;-83
2022/09/24 02:00:08;;;;;;;;;;;;;;;9.55;59.31;99705.13;4431504;32;33944;-83
2022/09/24 02:02:44;;;;;;;;;;;;;;;9.45;59.99;99705.19;4431935;32;34280;-81
2022/09/24 02:05:15;;;;;;;;;;;;;;;9.56;59.41;99705.97;4437061;32;33269;-81
2022/09/24 02:07:49;;;;;;;;;;;;;;;9.44;59.51;99706.94;4431485;32;33100;-82
2022/09/24 02:10:21;;;;;;;;;;;;;;;9.40;59.81;99708.69;4430967;32;34287;-81
2022/09/24 02:12:51;;;;;;;;;;;;;;;9.46;59.78;99707.78;4433887;32;33742;-81
2022/09/24 02:15:21;;;;;;;;;;;;;;;9.45;59.67;99702.59;4436534;32;33887;-80
2022/09/24 02:17:59;;;;;;;;;;;;;;;9.37;59.59;99703.56;4430844;32;33260;-81
2022/09/24 02:20:32;;;;;;;;;;;;;;;9.42;59.71;99707.81;4430814;32;33990;-82
2022/09/24 02:23:10;;;;;;;;;;;;;;;9.43;59.69;99712.13;4434944;32;34185;-80
2022/09/24 02:25:41;;;;;;;;;;;;;;;9.37;59.89;99707.84;4430918;32;34414;-81
2022/09/24 02:28:10;;;;;;;;;;;;;;;9.34;59.90;99707.88;4433206;32;34451;-81
2022/09/24 02:30:40;;;;;;;;;;;;;;;9.43;59.31;99707.81;4430789;32;33789;-80
2022/09/24 02:36:04;;;;;;;;;;;;;;;9.26;59.80;99714.84;4430848;32;34359;-80
2022/09/24 02:38:36;;;;;;;;;;;;;;;9.30;59.49;99708.75;4432100;32;34582;-81
2022/09/24 02:41:07;;;;;;;;;;;;;;;9.40;59.07;99711.28;4434568;32;33697;-81
2022/09/24 02:43:39;;;;;;;;;;;;;;;9.29;59.35;99713.09;4435463;32;33084;-82
2022/09/24 02:46:08;;;;;;;;;;;;;;;9.10;60.29;99709.78;4419718;32;33606;-82
2022/09/24 02:48:46;;;;;;;;;;;;;;;8.80;61.13;99705.66;4431231;32;33801;-83
2022/09/24 02:51:14;;;;;;;;;;;;;;;8.98;60.61;99702.94;4430126;32;33590;-82
2022/09/24 02:53:46;;;;;;;;;;;;;;;9.01;60.44;99708.97;4435150;32;35164;-82
2022/09/24 02:56:17;;;;;;;;;;;;;;;8.93;60.72;99715.06;4431851;32;33203;-82
2022/09/24 02:58:46;;;;;;;;;;;;;;;8.97;60.84;99703.81;4431217;32;33842;-83
2022/09/24 03:01:23;;;;;;;;;;;;;;;9.08;60.58;99708.91;4433877;32;34286;-81
2022/09/24 03:03:53;;;;;;;;;;;;;;;8.88;61.37;99713.38;4433426;32;33951;-80
2022/09/24 03:06:22;;;;;;;;;;;;;;;8.96;60.95;99714.19;4434419;32;33582;-82
2022/09/24 03:08:50;;;;;;;;;;;;;;;8.89;60.87;99703.03;4428259;32;34317;-81
2022/09/24 03:11:19;;;;;;;;;;;;;;;8.80;61.51;99707.41;4425239;32;33758;-81
2022/09/24 03:13:51;;;;;;;;;;;;;;;9.02;60.65;99695.19;4432900;32;33838;-80
2022/09/24 03:16:19;;;;;;;;;;;;;;;9.00;60.72;99702.09;4434059;32;33652;-81
2022/09/24 03:18:55;;;;;;;;;;;;;;;8.97;60.93;99688.31;4430857;32;33625;-81
2022/09/24 03:21:26;;;;;;;;;;;;;;;9.04;60.66;99690.88;4429523;32;34088;-80
2022/09/24 03:23:55;;;;;;;;;;;;;;;9.00;61.13;99682.25;4432294;32;34528;-80
2022/09/24 03:26:28;;;;;;;;;;;;;;;8.81;61.49;99684.09;4429100;32;33599;-80
2022/09/24 03:28:57;;;;;;;;;;;;;;;8.89;61.18;99682.34;4436908;32;33205;-80
2022/09/24 03:31:30;;;;;;;;;;;;;;;8.80;61.27;99681.53;4432548;32;33715;-82
2022/09/24 03:34:00;;;;;;;;;;;;;;;8.87;61.46;99678.03;4435524;32;34498;-81
2022/09/24 03:36:32;;;;;;;;;;;;;;;8.90;61.14;99675.41;4431582;32;33460;-82
2022/09/24 03:39:01;;;;;;;;;;;;;;;8.98;60.80;99679.66;4435785;32;34975;-81
2022/09/24 03:41:35;;;;;;;;;;;;;;;8.92;61.25;99679.72;4435042;32;33587;-81
2022/09/24 03:44:03;;;;;;;;;;;;;;;9.05;60.80;99682.22;4435996;32;34989;-81
2022/09/24 03:46:32;;;;;;;;;;;;;;;8.86;61.38;99678.88;4431466;32;33322;-80
2022/09/24 03:49:02;;;;;;;;;;;;;;;8.96;61.15;99678.84;4417554;32;33400;-82
2022/09/24 03:51:32;;;;;;;;;;;;;;;8.76;61.87;99673.75;4436909;32;35020;-85
2022/09/24 03:54:01;;;;;;;;;;;;;;;8.90;61.92;99673.69;4432780;32;34434;-81
2022/09/24 03:56:32;;;;;;;;;;;;;;;8.86;61.73;99671.97;4431693;32;34153;-83
2022/09/24 03:59:04;;;;;;;;;;;;;;;8.97;60.90;99662.44;4430981;32;33663;-81
2022/09/24 04:01:38;;;;;;;;;;;;;;;8.87;61.27;99672.87;4436092;32;35077;-81
2022/09/24 04:04:09;;;;;;;;;;;;;;;8.86;61.08;99668.53;4436122;32;35094;-82
2022/09/24 04:06:40;;;;;;;;;;;;;;;8.84;61.48;99662.50;4431764;32;33866;-82
2022/09/24 04:09:10;;;;;;;;;;;;;;;8.93;61.00;99670.22;4431050;32;34462;-82
2022/09/24 04:11:41;;;;;;;;;;;;;;;8.87;60.77;99665.09;4432176;32;34342;-83
2022/09/24 04:14:10;;;;;;;;;;;;;;;8.86;60.99;99671.97;4436245;32;33806;-82
2022/09/24 04:16:44;;;;;;;;;;;;;;;8.80;61.25;99672.03;4427424;32;33387;-80
2022/09/24 04:19:14;;;;;;;;;;;;;;;8.89;60.78;99671.09;4428634;32;32738;-82
2022/09/24 04:21:43;;;;;;;;;;;;;;;8.83;60.96;99671.16;4416514;32;33245;-81
2022/09/24 04:24:11;;;;;;;;;;;;;;;8.74;61.26;99672.91;4426414;32;33960;-81
2022/09/24 04:26:40;;;;;;;;;;;;;;;8.75;61.27;99671.22;4437834;32;33644;-82
2022/09/24 04:29:09;;;;;;;;;;;;;;;8.77;61.19;99669.47;4430735;32;33495;-81
2022/09/24 04:31:38;;;;;;;;;;;;;;;8.71;61.64;99672.09;4432198;32;33870;-81
2022/09/24 04:34:10;;;;;;;;;;;;;;;8.70;61.55;99670.38;4434481;32;34896;-81
2022/09/24 04:36:40;;;;;;;;;;;;;;;8.69;61.72;99673.81;4437144;32;33557;-81
2022/09/24 04:39:15;;;;;;;;;;;;;;;8.63;61.97;99674.72;4429532;32;33702;-81
2022/09/24 04:41:45;;;;;;;;;;;;;;;8.56;62.36;99670.44;4420797;32;35172;-83
2022/09/24 04:44:18;;;;;;;;;;;;;;;8.55;62.77;99668.72;4434309;32;33690;-83
2022/09/24 04:46:47;;;;;;;;;;;;;;;8.70;62.23;99663.47;4431713;32;33606;-82
2022/09/24 04:49:16;;;;;;;;;;;;;;;8.70;62.19;99672.97;4436587;32;34628;-82
2022/09/24 04:51:47;;;;;;;;;;;;;;;8.67;62.49;99685.91;4430374;32;34713;-81
2022/09/24 04:54:19;;;;;;;;;;;;;;;8.63;62.69;99679.91;4433210;32;34557;-81
2022/09/24 04:56:54;;;;;;;;;;;;;;;8.65;63.14;99683.34;4431461;32;32736;-82
2022/09/24 04:59:23;;;;;;;;;;;;;;;8.80;62.96;99682.38;4438027;32;34781;-80
2022/09/24 05:01:55;;;;;;;;;;;;;;;8.69;63.50;99684.16;4419244;32;34907;-82
2022/09/24 05:04:24;;;;;;;;;;;;;;;8.71;63.91;99685.88;4421429;32;33952;-81
2022/09/24 05:06:54;;;;;;;;;;;;;;;8.94;63.51;99680.56;4415148;32;34119;-82
2022/09/24 05:09:27;;;;;;;;;;;;;;;9.07;63.65;99675.31;4414133;32;34030;-81
2022/09/24 05:11:55;;;;;;;;;;;;;;;9.15;63.81;99665.75;4411686;32;33914;-81
2022/09/24 05:14:24;;;;;;;;;;;;;;;9.23;64.07;99663.97;4415787;32;35022;-81
2022/09/24 05:16:53;;;;;;;;;;;;;;;9.39;63.69;99660.34;4416160;32;32799;-80
2022/09/24 05:19:24;;;;;;;;;;;;;;;9.46;63.70;99662.91;4415894;32;36329;-81
2022/09/24 05:22:00;;;;;;;;;;;;;;;9.49;63.44;99660.28;4418059;32;34045;-80
2022/09/24 05:24:28;;;;;;;;;;;;;;;9.61;63.20;99661.00;4417276;32;34281;-81
2022/09/24 05:27:09;;;;;;;;;;;;;;;9.65;63.19;99667.03;4414583;32;33051;-81
2022/09/24 05:29:39;;;;;;;;;;;;;;;9.55;63.85;99670.59;4415796;32;33452;-81
2022/09/24 05:32:11;;;;;;;;;;;;;;;9.68;63.90;99672.19;4420040;32;33383;-81
2022/09/24 05:34:41;;;;;;;;;;;;;;;9.79;63.63;99672.09;4422437;32;33982;-81
2022/09/24 05:37:14;;;;;;;;;;;;;;;9.94;63.24;99666.72;4419108;32;33405;-81
2022/09/24 05:39:44;;;;;;;;;;;;;;;9.85;63.65;99664.22;4413830;32;33206;-81
2022/09/24 05:42:13;;;;;;;;;;;;;;;10.10;63.54;99666.53;4416795;32;33427;-81
2022/09/24 05:44:49;;;;;;;;;;;;;;;10.10;63.40;99666.53;4402892;32;33858;-80
2022/09/24 05:47:19;;;;;;;;;;;;;;;10.22;62.87;99662.09;4412408;32;34140;-80
2022/09/24 05:49:48;;;;;;;;;;;;;;;10.26;63.01;99666.34;4418114;32;34094;-80
2022/09/24 05:52:18;;;;;;;;;;;;;;;10.37;63.05;99665.41;4418950;32;34977;-82
2022/09/24 05:54:46;;;;;;;;;;;;;;;10.22;63.92;99671.59;4418978;32;34660;-81
2022/09/24 05:57:18;;;;;;;;;;;;;;;10.23;64.34;99679.34;4416770;32;33478;-83
2022/09/24 05:59:47;;;;;;;;;;;;;;;10.33;64.54;99674.09;4424747;32;34434;-81
2022/09/24 06:02:22;;;;;;;;;;;;;;;10.70;63.37;99676.19;4430064;32;34546;-83
2022/09/24 06:04:52;;;;;;;;;;;;;;;10.50;63.65;99686.84;4432484;32;34429;-83
2022/09/24 06:07:23;;;;;;;;;;;;;;;10.67;62.99;99690.91;4431150;32;32482;-81
2022/09/24 06:09:59;;;;;;;;;;;;;;;10.88;62.74;99687.19;4436807;32;34154;-81
2022/09/24 06:12:27;;;;;;;;;;;;;;;10.87;62.92;99684.59;4429692;32;33860;-83
2022/09/24 06:14:57;;;;;;;;;;;;;;;11.09;62.09;99682.56;4431608;32;34388;-81
2022/09/24 06:17:26;;;;;;;;;;;;;;;11.05;62.23;99684.34;4428782;32;33436;-81
2022/09/24 06:19:56;;;;;;;;;;;;;;;10.97;62.92;99681.00;4430435;32;35207;-82
2022/09/24 06:22:28;;;;;;;;;;;;;;;11.39;61.30;99686.41;4430856;32;33971;-80
2022/09/24 06:25:00;;;;;;;;;;;;;;;11.11;62.63;99683.38;4434505;32;33825;-83
2022/09/24 06:27:29;;;;;;;;;;;;;;;11.45;62.10;99688.91;4430255;32;33708;-82
2022/09/24 06:29:57;;;;;;;;;;;;;;;11.47;62.12;99691.44;4431800;32;33926;-82
2022/09/24 06:32:27;;;;;;;;;;;;;;;11.56;62.21;99696.50;4434900;32;34032;-82
2022/09/24 06:34:59;;;;;;;;;;;;;;;11.56;62.68;99696.50;4432727;32;34736;-82
2022/09/24 06:37:32;;;;;;;;;;;;;;;11.86;61.51;99700.31;4429156;32;33243;-82
2022/09/24 06:40:05;;;;;;;;;;;;;;;11.78;62.46;99699.56;4423913;32;33779;-83
2022/09/24 06:42:34;;;;;;;;;;;;;;;12.16;61.29;99703.25;4424578;32;34303;-83
2022/09/24 06:45:06;;;;;;;;;;;;;;;12.08;61.77;99694.72;4428642;32;34376;-81
2022/09/24 06:47:34;;;;;;;;;;;;;;;11.94;61.80;99687.19;4429802;32;33543;-84
2022/09/24 06:50:04;;;;;;;;;;;;;;;12.17;61.42;99689.34;4427818;32;34032;-83
2022/09/24 06:52:35;;;;;;;;;;;;;;;12.06;61.79;99693.91;4425851;32;33562;-82
2022/09/24 06:55:08;;;;;;;;;;;;;;;12.00;62.03;99699.22;4434834;32;33949;-82
2022/09/24 06:57:37;;;;;;;;;;;;;;;12.27;61.21;99701.28;4431049;32;34623;-81
2022/09/24 07:00:11;;;;;;;;;;;;;;;12.52;60.42;99695.59;4407698;32;33345;-83
2022/09/24 07:02:40;;;;;;;;;;;;;;;12.21;61.12;99693.59;4429196;32;35232;-82
2022/09/24 07:05:11;;;;;;;;;;;;;;;12.37;61.10;99694.13;4419645;32;34405;-82
2022/09/24 07:07:41;;;;;;;;;;;;;;;12.22;61.64;99702.25;4428451;32;33982;-84
2022/09/24 07:10:10;;;;;;;;;;;;;;;12.43;61.37;99703.59;4424880;32;33731;-82
2022/09/24 07:12:41;;;;;;;;;;;;;;;12.63;60.78;99710.97;4431474;32;33253;-83
2022/09/24 07:15:10;;;;;;;;;;;;;;;12.55;61.39;99714.59;4428848;32;34788;-82
2022/09/24 07:17:41;;;;;;;;;;;;;;;12.63;61.05;99711.81;4430341;32;33705;-84
2022/09/24 07:20:10;;;;;;;;;;;;;;;12.92;60.17;99712.94;4433180;32;33819;-83
2022/09/24 07:22:46;;;;;;;;;;;;;;;12.90;60.64;99719.91;4430817;32;34223;-84
2022/09/24 07:25:16;;;;;;;;;;;;;;;12.95;60.81;99723.28;4428940;32;33758;-84
2022/09/24 07:27:45;;;;;;;;;;;;;;;13.20;60.03;99721.81;4428904;32;34221;-84
2022/09/24 07:30:14;;;;;;;;;;;;;;;13.06;60.55;99726.50;4435331;32;33911;-84
2022/09/24 07:32:43;;;;;;;;;;;;;;;13.39;59.99;99717.06;4426099;32;33778;-86
2022/09/24 07:35:14;;;;;;;;;;;;;;;13.49;59.89;99720.31;4430375;32;32860;-85
2022/09/24 07:37:43;;;;;;;;;;;;;;;13.52;60.09;99725.44;4425896;32;34919;-83
2022/09/24 07:40:14;;;;;;;;;;;;;;;13.55;60.14;99733.16;4431412;32;33448;-86
2022/09/24 07:42:46;;;;;;;;;;;;;;;13.60;60.56;99731.34;4433674;32;33770;-84
2022/09/24 07:45:16;;;;;;;;;;;;;;;13.77;59.81;99733.53;4425897;32;35189;-84
2022/09/24 07:47:45;;;;;;;;;;;;;;;14.20;58.64;99731.50;4430885;32;32455;-84
2022/09/24 07:50:16;;;;;;;;;;;;;;;14.17;59.41;99736.81;4421334;32;33999;-83
2022/09/24 07:52:50;;;;;;;;;;;;;;;14.19;59.97;99737.62;4436038;32;34701;-86
2022/09/24 07:55:20;;;;;;;;;;;;;;;14.44;59.42;99732.59;4436592;32;34687;-83
2022/09/24 07:57:54;;;;;;;;;;;;;;;14.71;57.81;99733.56;4431165;32;33738;-84
2022/09/24 08:00:26;;;;;;;;;;;;;;;14.66;58.00;99733.69;4426516;32;34622;-85
2022/09/24 08:02:55;;;;;;;;;;;;;;;14.72;57.19;99728.31;4430451;32;33277;-84
2022/09/24 08:05:24;;;;;;;;;;;;;;;14.88;54.74;99735.69;4434982;32;34094;-84
2022/09/24 08:07:53;;;;;;;;;;;;;;;14.92;54.68;99734.69;4427524;32;33880;-84
2022/09/24 08:10:30;;;;;;;;;;;;;;;14.99;54.16;99731.00;4427849;32;34894;-84
2022/09/24 08:13:01;;;;;;;;;;;;;;;14.89;53.42;99733.03;4430369;32;34924;-86
2022/09/24 08:15:32;;;;;;;;;;;;;;;15.06;53.39;99732.50;4433574;32;34225;-83
2022/09/24 08:18:02;;;;;;;;;;;;;;;15.29;52.09;99712.63;4430771;32;33203;-85
2022/09/24 08:20:32;;;;;;;;;;;;;;;15.50;51.42;99718.94;4422908;32;33575;-84
2022/09/24 08:23:02;;;;;;;;;;;;;;;15.61;50.99;99718.56;4426929;32;34424;-85
2022/09/24 08:25:32;;;;;;;;;;;;;;;15.50;51.56;99726.78;4420421;32;34185;-84
2022/09/24 08:28:01;;;;;;;;;;;;;;;15.89;51.55;99718.53;4433873;32;33122;-83
2022/09/24 08:30:35;;;;;;;;;;;;;;;16.10;51.68;99717.78;4423988;32;31627;-83
2022/09/24 08:33:05;;;;;;;;;;;;;;;16.29;50.28;99707.50;4428041;32;36169;-82
2022/09/24 08:35:38;;;;;;;;;;;;;;;16.27;50.83;99701.47;4426990;32;36145;-84
2022/09/24 08:38:07;;;;;;;;;;;;;;;16.54;49.02;99690.88;4423342;32;33534;-84
2022/09/24 08:40:43;;;;;;;;;;;;;;;16.69;48.50;99699.91;4432947;32;34147;-83
2022/09/24 08:43:21;;;;;;;;;;;;;;;16.60;50.02;99698.53;4424875;32;33759;-83
2022/09/24 08:48:39;;;;;;;;;;;;;;;16.78;49.15;99702.19;4425941;32;32989;-83
2022/09/24 08:51:12;;;;;;;;;;;;;;;17.05;48.11;99687.19;4426860;32;33946;-84
2022/09/24 08:53:47;;;;;;;;;;;;;;;16.81;48.18;99697.72;4429310;32;34336;-83
2022/09/24 08:56:21;;;;;;;;;;;;;;;17.06;47.68;99684.50;4428918;32;34074;-85
2022/09/24 08:59:00;;;;;;;;;;;;;;;17.26;47.78;99688.09;4428405;32;33432;-83
2022/09/24 09:01:31;;;;;;;;;;;;;;;17.10;48.37;99703.56;4427838;32;34386;-82
2022/09/24 09:04:02;;;;;;;;;;;;;;;17.29;48.24;99706.31;4430751;32;34489;-84
2022/09/24 09:06:43;;;;;;;;;;;;;;;17.40;48.22;99704.13;4435380;32;34768;-83
2022/09/24 09:09:13;;;;;;;;;;;;;;;17.35;48.78;99698.22;4427909;32;33612;-83
2022/09/24 09:11:43;;;;;;;;;;;;;;;17.35;47.74;99695.59;4427169;32;33535;-82
2022/09/24 09:14:16;;;;;;;;;;;;;;;17.44;47.95;99687.31;4435223;32;34033;-81
2022/09/24 09:16:46;;;;;;;;;;;;;;;17.57;47.58;99685.06;4429264;32;34800;-83
2022/09/24 09:19:16;;;;;;;;;;;;;;;17.51;48.34;99681.84;4438153;32;33346;-83
2022/09/24 09:21:45;;;;;;;;;;;;;;;17.79;48.48;99684.16;4428327;32;34371;-84
2022/09/24 09:24:16;;;;;;;;;;;;;;;17.81;48.23;99683.19;4427070;32;34155;-82
2022/09/24 09:26:48;;;;;;;;;;;;;;;17.81;47.54;99684.97;4428754;32;33718;-83
2022/09/24 09:29:17;;;;;;;;;;;;;;;17.97;47.86;99680.75;4432629;32;33064;-85
2022/09/24 09:31:49;;;;;;;;;;;;;;;18.12;46.84;99677.47;4429691;32;33640;-84
2022/09/24 09:34:33;;;;;;;;;;;;;;;18.17;47.55;99674.63;4431320;32;34226;-83
2022/09/24 09:37:05;;;;;;;;;;;;;;;18.06;47.14;99669.84;4430869;32;34435;-83
2022/09/24 09:39:36;;;;;;;;;;;;;;;18.05;47.03;99669.91;4445121;32;33437;-84
2022/09/24 09:42:19;;;;;;;;;;;;;;;18.26;46.35;99663.69;4440164;32;33405;-84
2022/09/24 09:44:51;;;;;;;;;;;;;;;18.50;46.90;99666.97;4433348;32;33539;-84
2022/09/24 09:47:23;;;;;;;;;;;;;;;18.46;46.67;99665.44;4430981;32;36101;-85
2022/09/24 09:49:57;;;;;;;;;;;;;;;18.76;46.00;99654.44;4429292;32;33825;-86
2022/09/24 09:52:30;;;;;;;;;;;;;;;18.93;46.41;99654.47;4428911;32;33697;-83
2022/09/24 09:54:58;;;;;;;;;;;;;;;19.05;45.97;99657.44;4432776;32;34343;-83
2022/09/24 09:57:31;;;;;;;;;;;;;;;19.10;45.38;99661.53;4429326;32;32880;-85
2022/09/24 10:00:00;;;;;;;;;;;;;;;19.41;45.84;99665.31;4428734;32;31619;-86
2022/09/24 10:02:40;;;;;;;;;;;;;;;19.33;45.83;99665.69;4430912;32;33888;-86
2022/09/24 10:05:18;;;;;;;;;;;;;;;19.53;45.36;99661.22;4429728;32;35207;-84
2022/09/24 10:07:57;;;;;;;;;;;;;;;19.59;46.15;99658.25;4414542;32;32354;-84
2022/09/24 10:10:26;;;;;;;;;;;;;;;19.64;45.13;99655.38;4428896;32;33145;-85
2022/09/24 10:13:00;;;;;;;;;;;;;;;19.82;44.58;99649.22;4425817;32;34260;-84
2022/09/24 10:15:30;;;;;;;;;;;;;;;19.89;43.90;99655.03;4437594;32;33710;-84
2022/09/24 10:18:00;;;;;;;;;;;;;;;19.76;44.64;99645.09;4431889;32;34390;-84
2022/09/24 10:20:30;;;;;;;;;;;;;;;19.88;43.80;99642.78;4437210;32;33757;-86
2022/09/24 10:22:59;;;;;;;;;;;;;;;19.86;44.47;99640.25;4431193;32;33335;-88
2022/09/24 10:25:29;;;;;;;;;;;;;;;19.92;43.75;99639.91;4431390;32;33645;-83
2022/09/24 10:30:32;;;;;;;;;;;;;;;19.91;43.27;99632.94;4431573;32;34280;-84
2022/09/24 10:30:54;;;;;;;;;;;;;;;19.76;42.48;99639.00;4425050;32;33056;-85
2022/09/24 10:33:22;;;;;;;;;;;;;;;20.03;42.62;99632.28;4416100;32;33201;-85
2022/09/24 10:36:03;;;;;;;;;;;;;;;20.14;41.81;99626.44;4428868;32;34001;-85
2022/09/24 10:38:33;;;;;;;;;;;;;;;20.16;40.41;99621.94;4411217;32;33143;-85
2022/09/24 10:41:02;;;;;;;;;;;;;;;20.37;38.90;99609.41;4427705;32;31758;-86
2022/09/24 10:43:31;;;;;;;;;;;;;;;20.29;41.76;99622.13;4428830;32;34465;-84
2022/09/24 10:46:20;;;;;;;;;;;;;;;20.48;40.25;99613.22;4426483;32;34868;-86
2022/09/24 10:48:52;;;;;;;;;;;;;;;20.57;39.19;99612.75;4423873;32;33463;-86
2022/09/24 10:51:27;;;;;;;;;;;;;;;20.45;38.29;99622.16;4421861;32;33954;-85
2022/09/24 10:54:09;;;;;;;;;;;;;;;20.52;38.18;99620.03;4424041;32;34239;-85
2022/09/24 10:56:38;;;;;;;;;;;;;;;20.52;38.46;99612.13;4425801;32;33957;-84
2022/09/24 10:59:23;;;;;;;;;;;;;;;20.32;37.95;99623.75;4432512;32;34679;-85
2022/09/24 11:01:53;;;;;;;;;;;;;;;20.58;37.10;99619.72;4426750;32;32867;-83
2022/09/24 11:04:28;;;;;;;;;;;;;;;20.51;37.77;99618.31;4425622;32;35548;-85
2022/09/24 11:07:06;;;;;;;;;;;;;;;20.50;38.09;99619.25;4421357;32;34977;-85
2022/09/24 11:09:37;;;;;;;;;;;;;;;20.34;36.77;99613.97;4410523;32;33877;-84
2022/09/24 11:12:06;;;;;;;;;;;;;;;20.30;37.63;99609.81;4432241;32;32942;-84
2022/09/24 11:14:55;;;;;;;;;;;;;;;20.22;38.77;99608.47;4426247;32;33818;-84
2022/09/24 11:17:36;;;;;;;;;;;;;;;20.02;37.55;99596.34;4426373;32;33784;-84
2022/09/24 11:20:18;;;;;;;;;;;;;;;19.99;38.08;99600.94;4426305;32;34369;-85
2022/09/24 11:22:56;;;;;;;;;;;;;;;20.09;39.34;99602.13;4422353;32;33192;-84
2022/09/24 11:25:27;;;;;;;;;;;;;;;20.07;38.99;99595.25;4429096;32;34730;-85
2022/09/24 11:27:57;;;;;;;;;;;;;;;20.31;38.49;99591.28;4432063;32;33466;-85
2022/09/24 11:30:27;;;;;;;;;;;;;;;20.30;39.01;99575.56;4424072;32;34566;-84
2022/09/24 11:33:08;;;;;;;;;;;;;;;20.25;39.46;99583.72;4422015;32;33211;-86
2022/09/24 11:35:45;;;;;;;;;;;;;;;20.57;38.04;99592.50;4422521;32;34670;-85
2022/09/24 11:38:16;;;;;;;;;;;;;;;20.38;38.71;99581.25;4418412;32;34098;-84
2022/09/24 11:40:56;;;;;;;;;;;;;;;20.82;38.54;99580.56;4425008;32;33851;-85
2022/09/24 11:43:40;;;;;;;;;;;;;;;21.02;37.16;99584.69;4423771;32;34314;-86
2022/09/24 11:46:19;;;;;;;;;;;;;;;21.02;38.44;99572.38;4416965;32;34886;-84
2022/09/24 11:49:03;;;;;;;;;;;;;;;21.06;38.80;99565.13;4421794;32;34179;-84
2022/09/24 11:51:40;;;;;;;;;;;;;;;21.18;38.27;99568.81;4423536;32;33989;-84
2022/09/24 11:54:11;;;;;;;;;;;;;;;21.30;38.36;99571.56;4424080;32;33008;-85
2022/09/24 11:56:41;;;;;;;;;;;;;;;21.23;38.42;99577.31;4428404;32;33713;-87
2022/09/24 11:59:14;;;;;;;;;;;;;;;21.26;37.81;99578.00;4424102;32;34172;-85
2022/09/24 12:01:46;;;;;;;;;;;;;;;21.14;36.28;99573.41;4417676;32;34483;-86
2022/09/24 12:04:16;;;;;;;;;;;;;;;21.42;36.77;99569.19;4424318;32;32866;-84
2022/09/24 12:06:51;;;;;;;;;;;;;;;21.25;36.68;99560.44;4433223;32;33788;-85
2022/09/24 12:09:25;;;;;;;;;;;;;;;21.26;37.88;99559.53;4430414;32;35072;-85
2022/09/24 12:12:01;;;;;;;;;;;;;;;21.14;36.64;99556.75;4416139;32;34731;-84
2022/09/24 12:14:30;;;;;;;;;;;;;;;21.10;36.05;99556.94;4425442;32;33615;-85
2022/09/24 12:17:00;;;;;;;;;;;;;;;21.11;36.36;99560.41;4418647;32;32833;-86
2022/09/24 12:19:30;;;;;;;;;;;;;;;21.10;37.21;99556.09;4427646;32;34782;-86
2022/09/24 12:22:03;;;;;;;;;;;;;;;21.10;36.02;99550.81;4419436;32;34490;-85
2022/09/24 12:24:35;;;;;;;;;;;;;;;21.11;35.81;99552.50;4425094;32;33721;-83
2022/09/24 12:27:07;;;;;;;;;;;;;;;21.26;36.79;99551.63;4422682;32;34373;-84
2022/09/24 12:35:21;;;;;;;;;;;;;;;21.35;38.53;99555.47;4429758;32;34222;-85
2022/09/24 12:37:56;;;;;;;;;;;;;;;21.25;38.23;99541.97;4421105;32;33931;-84
2022/09/24 12:40:30;;;;;;;;;;;;;;;21.16;37.05;99542.53;4423671;32;34127;-84
2022/09/24 12:43:04;;;;;;;;;;;;;;;21.03;37.29;99545.03;4421781;32;34745;-84
2022/09/24 12:45:38;;;;;;;;;;;;;;;21.16;37.12;99542.53;4434313;32;33172;-84
2022/09/24 12:48:11;;;;;;;;;;;;;;;21.16;38.73;99534.59;4433993;32;34406;-84
2022/09/24 12:50:40;;;;;;;;;;;;;;;21.05;37.62;99532.62;4428013;32;34013;-83
2022/09/24 12:53:23;;;;;;;;;;;;;;;20.99;38.84;99538.25;4429593;32;34974;-86
2022/09/24 12:55:51;;;;;;;;;;;;;;;21.01;39.00;99535.53;4433493;32;34299;-83
2022/09/24 12:58:26;;;;;;;;;;;;;;;21.07;38.70;99535.19;4435276;32;33942;-85
2022/09/24 13:01:05;;;;;;;;;;;;;;;20.96;38.97;99527.03;4424766;32;34574;-84
2022/09/24 13:03:34;;;;;;;;;;;;;;;20.86;39.21;99527.56;4430170;32;34646;-86
2022/09/24 13:06:03;;;;;;;;;;;;;;;20.89;39.62;99521.28;4432737;32;33609;-83
2022/09/24 13:08:37;;;;;;;;;;;;;;;20.72;40.41;99522.25;4430382;32;34165;-85
2022/09/24 13:11:22;;;;;;;;;;;;;;;20.85;39.50;99522.38;4433872;32;34551;-84
2022/09/24 13:13:57;;;;;;;;;;;;;;;20.91;40.02;99522.03;4431715;32;34565;-83
2022/09/24 13:16:27;;;;;;;;;;;;;;;20.83;38.94;99524.28;4431743;32;33708;-85
2022/09/24 13:18:57;;;;;;;;;;;;;;;21.07;39.12;99516.72;4429481;32;34928;-83
2022/09/24 13:21:28;;;;;;;;;;;;;;;20.95;37.83;99525.31;4419400;32;34799;-84
2022/09/24 13:24:17;;;;;;;;;;;;;;;21.06;37.14;99522.91;4424980;32;34493;-83
2022/09/24 13:26:47;;;;;;;;;;;;;;;21.02;38.02;99519.63;4432837;32;33085;-83
2022/09/24 13:29:23;;;;;;;;;;;;;;;21.11;38.71;99499.75;4430401;32;34459;-83